Карточка аэропорта URSS

Внимание!
Информация на этой странице в стадии наполнения.
Если вы не увидели какой-то информации, или заметили неточность - пожалуйста сообщите нам!
Спасибо!
Команда RU-STAFF
Название аэропортаСочи
Название аэропорта (англ.)Sochi
Превышение89 ft. (27.1 m.)
Координаты43°26.634', 39°56.55'
Высота перехода13000 ft
Эшелон переходаFL140 (QNH >= 1013); FL150 (QNH 977-1012); FL160 (QNH < 977)
Коды ответчика1060-1077
Зона ОрВДРостов-на-Дону РПИ (URRV)
Данные METARURSS 252000Z 05002MPS 9999 FEW050 18/15 Q1009 R02/010070 R06/010070 NOSIG RMK R06/33001G05MPS QFE755
Проноз погоды (TAF)URSS 251658Z 2518/2618 05004G09MPS 9999 SCT040CB BKN100 TEMPO 2518/2605 VRB07G14MPS 2500 -TSRA SQ SCT010 BKN030CB OVC100 FM260500 28004G09MPS 8000 -SHRA BKN030CB OVC100 TEMPO 2605/2616 05005G10MPS 1200 SHRA BKN010 BKN030CB OVC100 FM261600 05003G08MPS 9999 SCT030CB BKN100 TEMPO 2616/2618 -SHRA SCT016 BKN030CB OVC100
NOTAMshow/hide NOTAM
AWOS   TABLE

Информация о ВПП

ВПП Длина ВПП (м.) Покрытие Курс ВПП Частота ILS
022500Цементобетон22110.5
062890Цементобетон58111.1
202500Цементобетон202 
242890Цементобетон238 

Диспетчерские позиции

Позывной Наименование органа УВД Частота
URSS_GNDСочи-Руление119.000
URSS_FM1119.000
URSS_R_APPСочи-Круг119.700
URSS_TWRСочи-Старт121.200
URSS_APPСочи-Подход124.600
URSS_DELСочи-Деливери132.700



Спутниковое изображение